sensor_id;sensor_type;location;lat;lon;timestamp;P1;durP1;ratioP1;P2;durP2;ratioP2
67156;SDS011;54086;50.126;8.710;2023-04-24T00:02:22;5.10;;;1.20;;
67156;SDS011;54086;50.126;8.710;2023-04-24T00:04:48;4.03;;;1.35;;
67156;SDS011;54086;50.126;8.710;2023-04-24T00:07:14;3.93;;;1.50;;
67156;SDS011;54086;50.126;8.710;2023-04-24T00:09:41;5.00;;;1.20;;
67156;SDS011;54086;50.126;8.710;2023-04-24T00:12:08;5.53;;;1.50;;
67156;SDS011;54086;50.126;8.710;2023-04-24T00:14:34;7.07;;;1.88;;
67156;SDS011;54086;50.126;8.710;2023-04-24T00:17:00;4.25;;;1.40;;
67156;SDS011;54086;50.126;8.710;2023-04-24T00:19:27;3.43;;;1.20;;
67156;SDS011;54086;50.126;8.710;2023-04-24T00:21:53;4.07;;;1.48;;
67156;SDS011;54086;50.126;8.710;2023-04-24T00:24:19;3.60;;;1.20;;
67156;SDS011;54086;50.126;8.710;2023-04-24T00:26:45;4.43;;;1.67;;
67156;SDS011;54086;50.126;8.710;2023-04-24T00:29:10;6.55;;;1.60;;
67156;SDS011;54086;50.126;8.710;2023-04-24T00:31:35;5.63;;;1.40;;
67156;SDS011;54086;50.126;8.710;2023-04-24T00:34:01;4.40;;;1.40;;
67156;SDS011;54086;50.126;8.710;2023-04-24T00:36:27;4.55;;;1.50;;
67156;SDS011;54086;50.126;8.710;2023-04-24T00:38:53;5.67;;;1.83;;
67156;SDS011;54086;50.126;8.710;2023-04-24T00:41:18;4.85;;;1.77;;
67156;SDS011;54086;50.126;8.710;2023-04-24T00:43:44;5.03;;;1.55;;
67156;SDS011;54086;50.126;8.710;2023-04-24T00:46:10;6.03;;;1.57;;
67156;SDS011;54086;50.126;8.710;2023-04-24T00:48:37;3.97;;;1.40;;
67156;SDS011;54086;50.126;8.710;2023-04-24T00:51:06;7.63;;;1.67;;
67156;SDS011;54086;50.126;8.710;2023-04-24T00:53:33;5.35;;;1.40;;
67156;SDS011;54086;50.126;8.710;2023-04-24T00:55:58;3.87;;;1.40;;
67156;SDS011;54086;50.126;8.710;2023-04-24T00:58:25;6.57;;;1.55;;
67156;SDS011;54086;50.126;8.710;2023-04-24T01:00:51;4.23;;;1.40;;
67156;SDS011;54086;50.126;8.710;2023-04-24T01:03:19;4.03;;;1.20;;
67156;SDS011;54086;50.126;8.710;2023-04-24T01:05:46;5.40;;;1.55;;
67156;SDS011;54086;50.126;8.710;2023-04-24T01:08:13;4.53;;;1.50;;
67156;SDS011;54086;50.126;8.710;2023-04-24T01:10:39;4.28;;;1.60;;
67156;SDS011;54086;50.126;8.710;2023-04-24T01:13:06;4.67;;;0.97;;
67156;SDS011;54086;50.126;8.710;2023-04-24T01:15:33;3.40;;;1.13;;
67156;SDS011;54086;50.126;8.710;2023-04-24T01:17:59;5.10;;;1.23;;
67156;SDS011;54086;50.126;8.710;2023-04-24T01:20:24;5.33;;;1.60;;
67156;SDS011;54086;50.126;8.710;2023-04-24T01:22:51;3.80;;;1.10;;
67156;SDS011;54086;50.126;8.710;2023-04-24T01:25:24;5.22;;;1.10;;
67156;SDS011;54086;50.126;8.710;2023-04-24T01:27:52;3.33;;;1.13;;
67156;SDS011;54086;50.126;8.710;2023-04-24T01:30:17;4.47;;;1.30;;
67156;SDS011;54086;50.126;8.710;2023-04-24T01:32:44;3.95;;;1.42;;
67156;SDS011;54086;50.126;8.710;2023-04-24T01:35:10;4.70;;;1.45;;
67156;SDS011;54086;50.126;8.710;2023-04-24T01:37:35;4.90;;;1.40;;
67156;SDS011;54086;50.126;8.710;2023-04-24T01:40:02;3.75;;;1.25;;
67156;SDS011;54086;50.126;8.710;2023-04-24T01:42:30;3.80;;;1.42;;
67156;SDS011;54086;50.126;8.710;2023-04-24T01:44:55;4.07;;;1.20;;
67156;SDS011;54086;50.126;8.710;2023-04-24T01:47:22;3.65;;;1.20;;
67156;SDS011;54086;50.126;8.710;2023-04-24T01:49:48;5.43;;;1.33;;
67156;SDS011;54086;50.126;8.710;2023-04-24T01:52:15;4.70;;;1.30;;
67156;SDS011;54086;50.126;8.710;2023-04-24T01:54:42;4.32;;;1.20;;
67156;SDS011;54086;50.126;8.710;2023-04-24T01:57:08;3.03;;;1.30;;
67156;SDS011;54086;50.126;8.710;2023-04-24T01:59:33;4.40;;;1.60;;
67156;SDS011;54086;50.126;8.710;2023-04-24T02:02:01;5.57;;;1.70;;
67156;SDS011;54086;50.126;8.710;2023-04-24T02:04:27;3.73;;;1.10;;
67156;SDS011;54086;50.126;8.710;2023-04-24T02:06:53;4.18;;;1.30;;
67156;SDS011;54086;50.126;8.710;2023-04-24T02:09:19;4.65;;;1.33;;
67156;SDS011;54086;50.126;8.710;2023-04-24T02:11:44;4.07;;;1.20;;
67156;SDS011;54086;50.126;8.710;2023-04-24T02:14:10;4.40;;;1.43;;
67156;SDS011;54086;50.126;8.710;2023-04-24T02:16:35;2.93;;;1.00;;
67156;SDS011;54086;50.126;8.710;2023-04-24T02:19:01;5.75;;;1.65;;
67156;SDS011;54086;50.126;8.710;2023-04-24T02:21:27;4.57;;;1.87;;
67156;SDS011;54086;50.126;8.710;2023-04-24T02:23:53;2.67;;;1.13;;
67156;SDS011;54086;50.126;8.710;2023-04-24T02:26:18;3.40;;;1.05;;
67156;SDS011;54086;50.126;8.710;2023-04-24T02:28:44;3.90;;;1.30;;
67156;SDS011;54086;50.126;8.710;2023-04-24T02:31:09;3.83;;;1.50;;
67156;SDS011;54086;50.126;8.710;2023-04-24T02:33:35;5.50;;;1.40;;
67156;SDS011;54086;50.126;8.710;2023-04-24T02:36:01;4.23;;;1.20;;
67156;SDS011;54086;50.126;8.710;2023-04-24T02:38:27;3.28;;;1.25;;
67156;SDS011;54086;50.126;8.710;2023-04-24T02:40:53;4.07;;;1.10;;
67156;SDS011;54086;50.126;8.710;2023-04-24T02:43:18;4.53;;;1.50;;
67156;SDS011;54086;50.126;8.710;2023-04-24T02:45:44;3.90;;;1.30;;
67156;SDS011;54086;50.126;8.710;2023-04-24T02:48:09;4.07;;;1.43;;
67156;SDS011;54086;50.126;8.710;2023-04-24T02:50:35;6.10;;;1.50;;
67156;SDS011;54086;50.126;8.710;2023-04-24T02:53:00;4.93;;;1.10;;
67156;SDS011;54086;50.126;8.710;2023-04-24T02:55:25;4.57;;;1.30;;
67156;SDS011;54086;50.126;8.710;2023-04-24T02:57:51;6.20;;;1.40;;
67156;SDS011;54086;50.126;8.710;2023-04-24T03:00:16;5.23;;;1.10;;
67156;SDS011;54086;50.126;8.710;2023-04-24T03:02:42;3.80;;;1.47;;
67156;SDS011;54086;50.126;8.710;2023-04-24T03:05:07;3.40;;;1.20;;
67156;SDS011;54086;50.126;8.710;2023-04-24T03:07:33;4.63;;;1.40;;
67156;SDS011;54086;50.126;8.710;2023-04-24T03:09:59;5.97;;;1.73;;
67156;SDS011;54086;50.126;8.710;2023-04-24T03:12:25;5.07;;;1.33;;
67156;SDS011;54086;50.126;8.710;2023-04-24T03:14:50;5.30;;;1.40;;
67156;SDS011;54086;50.126;8.710;2023-04-24T03:17:16;5.45;;;2.10;;
67156;SDS011;54086;50.126;8.710;2023-04-24T03:19:41;3.63;;;1.10;;
67156;SDS011;54086;50.126;8.710;2023-04-24T03:22:07;3.53;;;1.25;;
67156;SDS011;54086;50.126;8.710;2023-04-24T03:24:34;4.77;;;1.30;;
67156;SDS011;54086;50.126;8.710;2023-04-24T03:26:59;3.78;;;1.23;;
67156;SDS011;54086;50.126;8.710;2023-04-24T03:29:25;4.73;;;1.50;;
67156;SDS011;54086;50.126;8.710;2023-04-24T03:31:50;3.97;;;1.53;;
67156;SDS011;54086;50.126;8.710;2023-04-24T03:34:16;4.22;;;1.55;;
67156;SDS011;54086;50.126;8.710;2023-04-24T03:36:41;5.47;;;1.87;;
67156;SDS011;54086;50.126;8.710;2023-04-24T03:39:07;5.37;;;1.50;;
67156;SDS011;54086;50.126;8.710;2023-04-24T03:41:32;5.93;;;1.45;;
67156;SDS011;54086;50.126;8.710;2023-04-24T03:43:58;7.07;;;2.27;;
67156;SDS011;54086;50.126;8.710;2023-04-24T03:46:23;2.37;;;1.10;;
67156;SDS011;54086;50.126;8.710;2023-04-24T03:48:49;4.93;;;1.40;;
67156;SDS011;54086;50.126;8.710;2023-04-24T03:51:14;5.03;;;1.40;;
67156;SDS011;54086;50.126;8.710;2023-04-24T03:53:40;4.93;;;1.43;;
67156;SDS011;54086;50.126;8.710;2023-04-24T03:56:05;3.87;;;1.60;;
67156;SDS011;54086;50.126;8.710;2023-04-24T03:58:30;4.22;;;1.48;;
67156;SDS011;54086;50.126;8.710;2023-04-24T04:00:56;4.87;;;1.60;;
67156;SDS011;54086;50.126;8.710;2023-04-24T04:03:23;4.30;;;1.27;;
67156;SDS011;54086;50.126;8.710;2023-04-24T04:05:49;4.05;;;1.30;;
67156;SDS011;54086;50.126;8.710;2023-04-24T04:08:14;3.50;;;1.40;;
67156;SDS011;54086;50.126;8.710;2023-04-24T04:10:40;5.70;;;1.40;;
67156;SDS011;54086;50.126;8.710;2023-04-24T04:13:05;5.47;;;1.60;;
67156;SDS011;54086;50.126;8.710;2023-04-24T04:15:31;5.88;;;1.70;;
67156;SDS011;54086;50.126;8.710;2023-04-24T04:17:58;4.90;;;1.40;;
67156;SDS011;54086;50.126;8.710;2023-04-24T04:20:23;5.20;;;1.57;;
67156;SDS011;54086;50.126;8.710;2023-04-24T04:22:49;4.18;;;1.33;;
67156;SDS011;54086;50.126;8.710;2023-04-24T04:25:16;4.23;;;1.37;;
67156;SDS011;54086;50.126;8.710;2023-04-24T04:27:45;3.78;;;1.40;;
67156;SDS011;54086;50.126;8.710;2023-04-24T04:30:12;5.13;;;1.52;;
67156;SDS011;54086;50.126;8.710;2023-04-24T04:32:39;5.23;;;1.63;;
67156;SDS011;54086;50.126;8.710;2023-04-24T04:35:05;4.57;;;1.52;;
67156;SDS011;54086;50.126;8.710;2023-04-24T04:37:31;4.07;;;1.70;;
67156;SDS011;54086;50.126;8.710;2023-04-24T04:39:59;4.35;;;1.65;;
67156;SDS011;54086;50.126;8.710;2023-04-24T04:42:27;4.40;;;1.60;;
67156;SDS011;54086;50.126;8.710;2023-04-24T04:44:53;5.45;;;2.20;;
67156;SDS011;54086;50.126;8.710;2023-04-24T04:47:19;5.90;;;1.93;;
67156;SDS011;54086;50.126;8.710;2023-04-24T04:49:49;5.68;;;1.88;;
67156;SDS011;54086;50.126;8.710;2023-04-24T04:52:16;4.72;;;1.58;;
67156;SDS011;54086;50.126;8.710;2023-04-24T04:54:43;6.93;;;1.90;;
67156;SDS011;54086;50.126;8.710;2023-04-24T04:57:09;4.93;;;1.63;;
67156;SDS011;54086;50.126;8.710;2023-04-24T04:59:35;4.25;;;1.77;;
67156;SDS011;54086;50.126;8.710;2023-04-24T05:02:00;5.23;;;2.03;;
67156;SDS011;54086;50.126;8.710;2023-04-24T05:04:26;5.43;;;1.93;;
67156;SDS011;54086;50.126;8.710;2023-04-24T05:06:52;8.00;;;2.20;;
67156;SDS011;54086;50.126;8.710;2023-04-24T05:09:17;4.70;;;2.00;;
67156;SDS011;54086;50.126;8.710;2023-04-24T05:11:43;5.72;;;2.00;;
67156;SDS011;54086;50.126;8.710;2023-04-24T05:14:09;5.30;;;2.17;;
67156;SDS011;54086;50.126;8.710;2023-04-24T05:16:34;4.53;;;2.00;;
67156;SDS011;54086;50.126;8.710;2023-04-24T05:19:01;6.25;;;2.30;;
67156;SDS011;54086;50.126;8.710;2023-04-24T05:21:27;5.13;;;1.97;;
67156;SDS011;54086;50.126;8.710;2023-04-24T05:23:52;6.37;;;2.10;;
67156;SDS011;54086;50.126;8.710;2023-04-24T05:26:19;7.57;;;2.33;;
67156;SDS011;54086;50.126;8.710;2023-04-24T05:28:44;5.87;;;2.30;;
67156;SDS011;54086;50.126;8.710;2023-04-24T05:31:10;5.67;;;2.40;;
67156;SDS011;54086;50.126;8.710;2023-04-24T05:33:35;6.05;;;2.20;;
67156;SDS011;54086;50.126;8.710;2023-04-24T05:36:03;5.60;;;1.97;;
67156;SDS011;54086;50.126;8.710;2023-04-24T05:38:29;6.40;;;2.13;;
67156;SDS011;54086;50.126;8.710;2023-04-24T05:40:54;6.03;;;2.38;;
67156;SDS011;54086;50.126;8.710;2023-04-24T05:43:21;6.60;;;2.23;;
67156;SDS011;54086;50.126;8.710;2023-04-24T05:45:46;7.65;;;2.72;;
67156;SDS011;54086;50.126;8.710;2023-04-24T05:48:12;6.57;;;2.57;;
67156;SDS011;54086;50.126;8.710;2023-04-24T05:50:37;8.00;;;2.60;;
67156;SDS011;54086;50.126;8.710;2023-04-24T05:53:03;5.40;;;2.40;;
67156;SDS011;54086;50.126;8.710;2023-04-24T05:55:30;5.43;;;2.30;;
67156;SDS011;54086;50.126;8.710;2023-04-24T05:57:56;6.28;;;2.55;;
67156;SDS011;54086;50.126;8.710;2023-04-24T06:00:21;8.23;;;3.10;;
67156;SDS011;54086;50.126;8.710;2023-04-24T06:02:47;6.40;;;2.50;;
67156;SDS011;54086;50.126;8.710;2023-04-24T06:05:12;6.00;;;2.47;;
67156;SDS011;54086;50.126;8.710;2023-04-24T06:07:39;8.60;;;3.10;;
67156;SDS011;54086;50.126;8.710;2023-04-24T06:10:05;5.70;;;2.20;;
67156;SDS011;54086;50.126;8.710;2023-04-24T06:12:31;6.10;;;2.63;;
67156;SDS011;54086;50.126;8.710;2023-04-24T06:14:56;6.70;;;2.50;;
67156;SDS011;54086;50.126;8.710;2023-04-24T06:17:22;6.77;;;3.00;;
67156;SDS011;54086;50.126;8.710;2023-04-24T06:19:47;7.53;;;2.70;;
67156;SDS011;54086;50.126;8.710;2023-04-24T06:22:13;6.50;;;2.73;;
67156;SDS011;54086;50.126;8.710;2023-04-24T06:24:39;8.17;;;3.63;;
67156;SDS011;54086;50.126;8.710;2023-04-24T06:27:05;7.32;;;2.85;;
67156;SDS011;54086;50.126;8.710;2023-04-24T06:29:30;5.33;;;2.33;;
67156;SDS011;54086;50.126;8.710;2023-04-24T06:31:56;6.23;;;2.90;;
67156;SDS011;54086;50.126;8.710;2023-04-24T06:34:21;6.97;;;3.20;;
67156;SDS011;54086;50.126;8.710;2023-04-24T06:36:47;7.70;;;3.40;;
67156;SDS011;54086;50.126;8.710;2023-04-24T06:39:12;7.00;;;3.10;;
67156;SDS011;54086;50.126;8.710;2023-04-24T06:41:38;9.40;;;3.17;;
67156;SDS011;54086;50.126;8.710;2023-04-24T06:44:04;5.80;;;2.83;;
67156;SDS011;54086;50.126;8.710;2023-04-24T06:46:30;6.50;;;2.65;;
67156;SDS011;54086;50.126;8.710;2023-04-24T06:48:55;6.53;;;2.80;;
67156;SDS011;54086;50.126;8.710;2023-04-24T06:51:24;7.60;;;3.10;;
67156;SDS011;54086;50.126;8.710;2023-04-24T06:53:53;6.55;;;2.35;;
67156;SDS011;54086;50.126;8.710;2023-04-24T06:58:53;5.72;;;2.83;;
67156;SDS011;54086;50.126;8.710;2023-04-24T07:01:19;7.53;;;2.80;;
67156;SDS011;54086;50.126;8.710;2023-04-24T07:03:44;6.90;;;2.83;;
67156;SDS011;54086;50.126;8.710;2023-04-24T07:06:10;8.23;;;3.47;;
67156;SDS011;54086;50.126;8.710;2023-04-24T07:08:37;7.03;;;3.17;;
67156;SDS011;54086;50.126;8.710;2023-04-24T07:11:03;7.57;;;2.97;;
67156;SDS011;54086;50.126;8.710;2023-04-24T07:13:28;7.37;;;3.40;;
67156;SDS011;54086;50.126;8.710;2023-04-24T07:15:55;6.97;;;2.80;;
67156;SDS011;54086;50.126;8.710;2023-04-24T07:18:21;6.13;;;3.07;;
67156;SDS011;54086;50.126;8.710;2023-04-24T07:20:47;7.30;;;3.00;;
67156;SDS011;54086;50.126;8.710;2023-04-24T07:23:12;7.18;;;3.28;;
67156;SDS011;54086;50.126;8.710;2023-04-24T07:25:38;7.07;;;2.97;;
67156;SDS011;54086;50.126;8.710;2023-04-24T07:28:04;8.27;;;3.03;;
67156;SDS011;54086;50.126;8.710;2023-04-24T07:30:30;8.07;;;3.20;;
67156;SDS011;54086;50.126;8.710;2023-04-24T07:32:57;10.40;;;4.03;;
67156;SDS011;54086;50.126;8.710;2023-04-24T07:35:23;8.85;;;3.45;;
67156;SDS011;54086;50.126;8.710;2023-04-24T07:37:50;7.53;;;3.45;;
67156;SDS011;54086;50.126;8.710;2023-04-24T07:40:16;7.93;;;3.20;;
67156;SDS011;54086;50.126;8.710;2023-04-24T07:42:42;6.43;;;3.10;;
67156;SDS011;54086;50.126;8.710;2023-04-24T07:45:08;6.15;;;2.78;;
67156;SDS011;54086;50.126;8.710;2023-04-24T07:47:34;8.13;;;3.00;;
67156;SDS011;54086;50.126;8.710;2023-04-24T07:49:59;7.38;;;2.75;;
67156;SDS011;54086;50.126;8.710;2023-04-24T07:52:27;6.00;;;2.50;;
67156;SDS011;54086;50.126;8.710;2023-04-24T07:54:54;6.10;;;2.78;;
67156;SDS011;54086;50.126;8.710;2023-04-24T07:57:23;6.53;;;2.80;;
67156;SDS011;54086;50.126;8.710;2023-04-24T07:59:49;6.63;;;2.90;;
67156;SDS011;54086;50.126;8.710;2023-04-24T08:02:16;7.82;;;3.00;;
67156;SDS011;54086;50.126;8.710;2023-04-24T08:04:41;8.57;;;3.37;;
67156;SDS011;54086;50.126;8.710;2023-04-24T08:07:07;7.13;;;2.67;;
67156;SDS011;54086;50.126;8.710;2023-04-24T08:09:40;6.20;;;2.70;;
67156;SDS011;54086;50.126;8.710;2023-04-24T08:12:05;7.18;;;3.05;;
67156;SDS011;54086;50.126;8.710;2023-04-24T08:14:31;7.07;;;3.30;;
67156;SDS011;54086;50.126;8.710;2023-04-24T08:16:56;10.50;;;2.90;;
67156;SDS011;54086;50.126;8.710;2023-04-24T08:19:22;10.43;;;3.63;;
67156;SDS011;54086;50.126;8.710;2023-04-24T08:21:47;9.73;;;4.63;;
67156;SDS011;54086;50.126;8.710;2023-04-24T08:24:13;7.25;;;3.08;;
67156;SDS011;54086;50.126;8.710;2023-04-24T08:26:39;7.07;;;3.30;;
67156;SDS011;54086;50.126;8.710;2023-04-24T08:29:04;7.97;;;3.20;;
67156;SDS011;54086;50.126;8.710;2023-04-24T08:31:31;6.50;;;3.03;;
67156;SDS011;54086;50.126;8.710;2023-04-24T08:33:57;7.22;;;3.35;;
67156;SDS011;54086;50.126;8.710;2023-04-24T08:36:22;6.93;;;2.70;;
67156;SDS011;54086;50.126;8.710;2023-04-24T08:38:48;5.90;;;2.45;;
67156;SDS011;54086;50.126;8.710;2023-04-24T08:41:14;6.20;;;2.63;;
67156;SDS011;54086;50.126;8.710;2023-04-24T08:43:41;7.53;;;3.22;;
67156;SDS011;54086;50.126;8.710;2023-04-24T08:46:07;6.88;;;2.67;;
67156;SDS011;54086;50.126;8.710;2023-04-24T08:48:34;6.33;;;2.50;;
67156;SDS011;54086;50.126;8.710;2023-04-24T08:51:01;7.28;;;3.25;;
67156;SDS011;54086;50.126;8.710;2023-04-24T08:53:31;7.85;;;3.63;;
67156;SDS011;54086;50.126;8.710;2023-04-24T08:55:59;9.35;;;4.18;;
67156;SDS011;54086;50.126;8.710;2023-04-24T08:58:26;7.57;;;3.08;;
67156;SDS011;54086;50.126;8.710;2023-04-24T09:00:56;8.13;;;2.73;;
67156;SDS011;54086;50.126;8.710;2023-04-24T09:03:23;7.40;;;2.90;;
67156;SDS011;54086;50.126;8.710;2023-04-24T09:05:49;7.15;;;3.10;;
67156;SDS011;54086;50.126;8.710;2023-04-24T09:08:18;7.50;;;2.67;;
67156;SDS011;54086;50.126;8.710;2023-04-24T09:10:44;8.90;;;3.13;;
67156;SDS011;54086;50.126;8.710;2023-04-24T09:13:10;6.73;;;2.80;;
67156;SDS011;54086;50.126;8.710;2023-04-24T09:15:36;10.10;;;3.05;;
67156;SDS011;54086;50.126;8.710;2023-04-24T09:18:04;7.07;;;2.80;;
67156;SDS011;54086;50.126;8.710;2023-04-24T09:20:29;8.27;;;3.63;;
67156;SDS011;54086;50.126;8.710;2023-04-24T09:22:56;6.53;;;3.00;;
67156;SDS011;54086;50.126;8.710;2023-04-24T09:25:33;6.82;;;3.00;;
67156;SDS011;54086;50.126;8.710;2023-04-24T09:28:01;7.43;;;3.60;;
67156;SDS011;54086;50.126;8.710;2023-04-24T09:30:28;6.57;;;2.78;;
67156;SDS011;54086;50.126;8.710;2023-04-24T09:33:14;6.23;;;2.90;;
67156;SDS011;54086;50.126;8.710;2023-04-24T09:35:49;7.32;;;3.03;;
67156;SDS011;54086;50.126;8.710;2023-04-24T09:38:15;6.38;;;2.78;;
67156;SDS011;54086;50.126;8.710;2023-04-24T09:40:42;6.57;;;2.63;;
67156;SDS011;54086;50.126;8.710;2023-04-24T09:43:11;6.53;;;2.78;;
67156;SDS011;54086;50.126;8.710;2023-04-24T09:45:37;7.03;;;3.17;;
67156;SDS011;54086;50.126;8.710;2023-04-24T09:48:09;8.07;;;3.17;;
67156;SDS011;54086;50.126;8.710;2023-04-24T09:50:35;7.20;;;3.50;;
67156;SDS011;54086;50.126;8.710;2023-04-24T09:53:02;7.43;;;3.20;;
67156;SDS011;54086;50.126;8.710;2023-04-24T09:55:29;5.35;;;2.22;;
67156;SDS011;54086;50.126;8.710;2023-04-24T09:57:59;7.72;;;2.55;;
67156;SDS011;54086;50.126;8.710;2023-04-24T10:00:27;6.05;;;2.70;;
67156;SDS011;54086;50.126;8.710;2023-04-24T10:03:01;6.72;;;2.65;;
67156;SDS011;54086;50.126;8.710;2023-04-24T10:05:29;6.73;;;2.70;;
67156;SDS011;54086;50.126;8.710;2023-04-24T10:08:03;6.45;;;2.25;;
67156;SDS011;54086;50.126;8.710;2023-04-24T10:10:30;7.10;;;2.50;;
67156;SDS011;54086;50.126;8.710;2023-04-24T10:12:56;5.63;;;2.40;;
67156;SDS011;54086;50.126;8.710;2023-04-24T10:15:22;5.33;;;2.70;;
67156;SDS011;54086;50.126;8.710;2023-04-24T10:17:48;6.63;;;2.50;;
67156;SDS011;54086;50.126;8.710;2023-04-24T10:20:21;5.83;;;2.60;;
67156;SDS011;54086;50.126;8.710;2023-04-24T10:22:50;5.65;;;2.20;;
67156;SDS011;54086;50.126;8.710;2023-04-24T10:25:20;5.57;;;2.10;;
67156;SDS011;54086;50.126;8.710;2023-04-24T10:27:49;6.18;;;2.60;;
67156;SDS011;54086;50.126;8.710;2023-04-24T10:30:16;6.55;;;2.78;;
67156;SDS011;54086;50.126;8.710;2023-04-24T10:32:42;7.30;;;2.57;;
67156;SDS011;54086;50.126;8.710;2023-04-24T10:35:08;6.25;;;2.50;;
67156;SDS011;54086;50.126;8.710;2023-04-24T10:37:39;6.00;;;2.37;;
67156;SDS011;54086;50.126;8.710;2023-04-24T10:40:07;8.52;;;2.85;;
67156;SDS011;54086;50.126;8.710;2023-04-24T10:42:36;13.60;;;3.05;;
67156;SDS011;54086;50.126;8.710;2023-04-24T10:45:06;7.03;;;3.33;;
67156;SDS011;54086;50.126;8.710;2023-04-24T10:48:14;7.93;;;3.00;;
67156;SDS011;54086;50.126;8.710;2023-04-24T10:50:28;7.00;;;3.10;;
67156;SDS011;54086;50.126;8.710;2023-04-24T10:53:05;6.25;;;2.40;;
67156;SDS011;54086;50.126;8.710;2023-04-24T10:55:46;6.75;;;2.33;;
67156;SDS011;54086;50.126;8.710;2023-04-24T10:58:15;6.72;;;2.70;;
67156;SDS011;54086;50.126;8.710;2023-04-24T11:00:48;6.67;;;2.73;;
67156;SDS011;54086;50.126;8.710;2023-04-24T11:03:23;6.75;;;2.80;;
67156;SDS011;54086;50.126;8.710;2023-04-24T11:18:51;5.28;;;2.28;;
67156;SDS011;54086;50.126;8.710;2023-04-24T11:21:21;8.45;;;2.28;;
67156;SDS011;54086;50.126;8.710;2023-04-24T11:23:47;5.82;;;2.30;;
67156;SDS011;54086;50.126;8.710;2023-04-24T11:26:16;7.70;;;2.30;;
67156;SDS011;54086;50.126;8.710;2023-04-24T11:29:06;5.97;;;1.80;;
67156;SDS011;54086;50.126;8.710;2023-04-24T11:31:39;5.13;;;1.98;;
67156;SDS011;54086;50.126;8.710;2023-04-24T11:34:13;6.50;;;1.87;;
67156;SDS011;54086;50.126;8.710;2023-04-24T11:36:39;5.22;;;1.83;;
67156;SDS011;54086;50.126;8.710;2023-04-24T11:39:07;5.45;;;2.20;;
67156;SDS011;54086;50.126;8.710;2023-04-24T11:41:33;6.10;;;2.13;;
67156;SDS011;54086;50.126;8.710;2023-04-24T11:44:00;5.07;;;2.10;;
67156;SDS011;54086;50.126;8.710;2023-04-24T11:46:27;6.70;;;2.10;;
67156;SDS011;54086;50.126;8.710;2023-04-24T11:48:53;7.57;;;2.17;;
67156;SDS011;54086;50.126;8.710;2023-04-24T11:51:27;5.78;;;2.20;;
67156;SDS011;54086;50.126;8.710;2023-04-24T11:53:54;5.70;;;2.13;;
67156;SDS011;54086;50.126;8.710;2023-04-24T11:56:21;4.45;;;1.98;;
67156;SDS011;54086;50.126;8.710;2023-04-24T11:58:51;5.78;;;2.30;;
67156;SDS011;54086;50.126;8.710;2023-04-24T12:01:17;4.53;;;1.90;;
67156;SDS011;54086;50.126;8.710;2023-04-24T12:03:46;6.90;;;2.37;;
67156;SDS011;54086;50.126;8.710;2023-04-24T12:06:15;6.32;;;1.85;;
67156;SDS011;54086;50.126;8.710;2023-04-24T12:08:40;7.00;;;2.00;;
67156;SDS011;54086;50.126;8.710;2023-04-24T12:11:07;6.13;;;2.03;;
67156;SDS011;54086;50.126;8.710;2023-04-24T12:13:33;5.45;;;2.20;;
67156;SDS011;54086;50.126;8.710;2023-04-24T12:16:01;6.50;;;2.23;;
67156;SDS011;54086;50.126;8.710;2023-04-24T12:18:30;6.82;;;2.67;;
67156;SDS011;54086;50.126;8.710;2023-04-24T12:21:03;6.28;;;2.10;;
67156;SDS011;54086;50.126;8.710;2023-04-24T12:23:46;5.03;;;1.98;;
67156;SDS011;54086;50.126;8.710;2023-04-24T12:26:15;5.03;;;2.20;;
67156;SDS011;54086;50.126;8.710;2023-04-24T12:28:45;4.90;;;1.92;;
67156;SDS011;54086;50.126;8.710;2023-04-24T12:31:11;4.95;;;1.90;;
67156;SDS011;54086;50.126;8.710;2023-04-24T12:33:37;5.20;;;2.03;;
67156;SDS011;54086;50.126;8.710;2023-04-24T12:36:03;4.77;;;2.00;;
67156;SDS011;54086;50.126;8.710;2023-04-24T12:38:30;5.78;;;2.35;;
67156;SDS011;54086;50.126;8.710;2023-04-24T12:43:31;5.13;;;1.77;;
67156;SDS011;54086;50.126;8.710;2023-04-24T12:45:57;5.18;;;1.83;;
67156;SDS011;54086;50.126;8.710;2023-04-24T12:48:24;4.53;;;2.00;;
67156;SDS011;54086;50.126;8.710;2023-04-24T12:50:50;6.10;;;2.47;;
67156;SDS011;54086;50.126;8.710;2023-04-24T12:53:15;6.53;;;2.27;;
67156;SDS011;54086;50.126;8.710;2023-04-24T12:55:41;6.87;;;2.90;;
67156;SDS011;54086;50.126;8.710;2023-04-24T12:58:06;6.53;;;2.57;;
67156;SDS011;54086;50.126;8.710;2023-04-24T13:00:32;6.18;;;2.45;;
67156;SDS011;54086;50.126;8.710;2023-04-24T13:02:58;6.73;;;3.00;;
67156;SDS011;54086;50.126;8.710;2023-04-24T13:05:23;8.43;;;3.42;;
67156;SDS011;54086;50.126;8.710;2023-04-24T13:07:50;7.65;;;3.55;;
67156;SDS011;54086;50.126;8.710;2023-04-24T13:10:16;7.13;;;3.80;;
67156;SDS011;54086;50.126;8.710;2023-04-24T13:12:41;8.07;;;3.70;;
67156;SDS011;54086;50.126;8.710;2023-04-24T13:15:16;8.50;;;3.47;;
67156;SDS011;54086;50.126;8.710;2023-04-24T13:17:43;7.30;;;3.30;;
67156;SDS011;54086;50.126;8.710;2023-04-24T13:20:08;7.93;;;3.30;;
67156;SDS011;54086;50.126;8.710;2023-04-24T13:22:35;7.30;;;2.80;;
67156;SDS011;54086;50.126;8.710;2023-04-24T13:25:00;7.53;;;3.00;;
67156;SDS011;54086;50.126;8.710;2023-04-24T13:27:26;7.37;;;3.30;;
67156;SDS011;54086;50.126;8.710;2023-04-24T13:29:51;7.47;;;3.13;;
67156;SDS011;54086;50.126;8.710;2023-04-24T13:32:17;6.80;;;3.90;;
67156;SDS011;54086;50.126;8.710;2023-04-24T13:34:42;8.25;;;3.20;;
67156;SDS011;54086;50.126;8.710;2023-04-24T13:37:08;7.63;;;3.17;;
67156;SDS011;54086;50.126;8.710;2023-04-24T13:39:33;7.70;;;3.30;;
67156;SDS011;54086;50.126;8.710;2023-04-24T13:41:59;8.73;;;2.97;;
67156;SDS011;54086;50.126;8.710;2023-04-24T13:44:24;8.33;;;2.67;;
67156;SDS011;54086;50.126;8.710;2023-04-24T13:46:51;5.68;;;2.25;;
67156;SDS011;54086;50.126;8.710;2023-04-24T13:49:19;5.60;;;2.10;;
67156;SDS011;54086;50.126;8.710;2023-04-24T13:51:45;5.83;;;2.37;;
67156;SDS011;54086;50.126;8.710;2023-04-24T13:54:10;6.88;;;2.92;;
67156;SDS011;54086;50.126;8.710;2023-04-24T13:56:36;7.90;;;3.63;;
67156;SDS011;54086;50.126;8.710;2023-04-24T13:59:02;8.38;;;3.63;;
67156;SDS011;54086;50.126;8.710;2023-04-24T14:01:27;10.73;;;4.43;;
67156;SDS011;54086;50.126;8.710;2023-04-24T14:03:53;7.73;;;3.20;;
67156;SDS011;54086;50.126;8.710;2023-04-24T14:06:20;7.90;;;3.00;;
67156;SDS011;54086;50.126;8.710;2023-04-24T14:08:46;8.27;;;3.00;;
67156;SDS011;54086;50.126;8.710;2023-04-24T14:11:12;7.23;;;2.63;;
67156;SDS011;54086;50.126;8.710;2023-04-24T14:13:38;7.97;;;3.10;;
67156;SDS011;54086;50.126;8.710;2023-04-24T14:16:05;6.90;;;3.13;;
67156;SDS011;54086;50.126;8.710;2023-04-24T14:18:31;6.00;;;2.80;;
67156;SDS011;54086;50.126;8.710;2023-04-24T14:20:56;6.77;;;3.00;;
67156;SDS011;54086;50.126;8.710;2023-04-24T14:23:22;7.40;;;3.00;;
67156;SDS011;54086;50.126;8.710;2023-04-24T14:25:47;6.60;;;2.70;;
67156;SDS011;54086;50.126;8.710;2023-04-24T14:28:16;7.57;;;3.47;;
67156;SDS011;54086;50.126;8.710;2023-04-24T14:30:42;6.87;;;3.23;;
67156;SDS011;54086;50.126;8.710;2023-04-24T14:33:07;7.95;;;2.90;;
67156;SDS011;54086;50.126;8.710;2023-04-24T14:35:33;8.93;;;3.47;;
67156;SDS011;54086;50.126;8.710;2023-04-24T14:38:00;8.65;;;3.60;;
67156;SDS011;54086;50.126;8.710;2023-04-24T14:40:25;6.50;;;2.93;;
67156;SDS011;54086;50.126;8.710;2023-04-24T14:42:51;8.43;;;3.20;;
67156;SDS011;54086;50.126;8.710;2023-04-24T14:45:16;8.15;;;2.80;;
67156;SDS011;54086;50.126;8.710;2023-04-24T14:47:42;7.32;;;3.00;;
67156;SDS011;54086;50.126;8.710;2023-04-24T14:50:08;8.43;;;3.13;;
67156;SDS011;54086;50.126;8.710;2023-04-24T14:52:33;6.80;;;3.17;;
67156;SDS011;54086;50.126;8.710;2023-04-24T14:54:59;6.90;;;3.50;;
67156;SDS011;54086;50.126;8.710;2023-04-24T14:57:25;7.90;;;3.57;;
67156;SDS011;54086;50.126;8.710;2023-04-24T14:59:51;7.15;;;3.42;;
67156;SDS011;54086;50.126;8.710;2023-04-24T15:02:16;10.07;;;3.87;;
67156;SDS011;54086;50.126;8.710;2023-04-24T15:04:41;8.63;;;3.57;;